createdAt,value
2023-01-30T00:00:16.458Z,25.10
2023-01-30T00:01:16.379Z,27.00
2023-01-30T00:02:16.702Z,25.80
2023-01-30T00:03:16.948Z,23.80
2023-01-30T00:04:17.588Z,25.40
2023-01-30T00:05:17.587Z,25.20
2023-01-30T00:06:17.797Z,25.30
2023-01-30T00:07:18.135Z,25.40
2023-01-30T00:08:18.328Z,26.90
2023-01-30T00:09:18.690Z,26.60
2023-01-30T00:10:19.223Z,26.60
2023-01-30T00:11:19.334Z,25.70
2023-01-30T00:12:19.593Z,26.70
2023-01-30T00:13:19.952Z,26.20
2023-01-30T00:14:20.183Z,25.00
2023-01-30T00:15:20.520Z,26.60
2023-01-30T00:16:20.796Z,24.50
2023-01-30T00:17:21.028Z,27.00
2023-01-30T00:18:21.379Z,28.10
2023-01-30T00:19:21.729Z,26.40
2023-01-30T00:20:22.059Z,24.40
2023-01-30T00:21:22.226Z,25.50
2023-01-30T00:22:22.492Z,26.50
2023-01-30T00:23:22.807Z,26.40
2023-01-30T00:24:23.266Z,27.30
2023-01-30T00:25:23.540Z,26.20
2023-01-30T00:26:23.685Z,26.40
2023-01-30T00:27:23.938Z,26.50
2023-01-30T00:28:24.136Z,26.70
2023-01-30T00:29:24.480Z,25.20
2023-01-30T00:30:24.732Z,26.20
2023-01-30T00:31:24.958Z,25.90
2023-01-30T00:32:25.201Z,25.30
2023-01-30T00:33:25.465Z,25.40
2023-01-30T00:34:25.832Z,26.10
2023-01-30T00:35:26.105Z,28.80
2023-01-30T00:36:26.431Z,26.00
2023-01-30T00:37:26.796Z,26.80
2023-01-30T00:38:27.048Z,27.50
2023-01-30T00:39:27.383Z,27.70
2023-01-30T00:40:27.611Z,25.90
2023-01-30T00:41:27.918Z,26.10
2023-01-30T00:42:28.268Z,29.00
2023-01-30T00:43:28.592Z,26.50
2023-01-30T00:44:28.953Z,27.80
2023-01-30T00:45:29.232Z,26.90
2023-01-30T00:46:29.458Z,27.80
2023-01-30T00:47:29.786Z,26.30
2023-01-30T00:48:30.075Z,26.60
2023-01-30T00:49:31.888Z,26.20
2023-01-30T00:50:30.666Z,25.90
2023-01-30T00:51:31.038Z,27.30
2023-01-30T00:52:31.442Z,28.30
2023-01-30T00:53:31.676Z,27.70
2023-01-30T00:54:31.938Z,26.10
2023-01-30T00:55:32.136Z,26.50
2023-01-30T00:56:32.443Z,27.70
2023-01-30T00:57:32.800Z,27.20
2023-01-30T00:58:32.997Z,28.50
2023-01-30T00:59:33.304Z,27.60
2023-01-30T01:00:33.480Z,28.00
2023-01-30T01:01:33.807Z,26.90
2023-01-30T01:02:34.149Z,28.90
2023-01-30T01:03:34.363Z,28.20
2023-01-30T01:04:34.678Z,26.70
2023-01-30T01:05:34.989Z,27.20
2023-01-30T01:06:35.327Z,27.40
2023-01-30T01:07:35.755Z,28.50
2023-01-30T01:08:35.925Z,28.80
2023-01-30T01:09:36.249Z,28.60
2023-01-30T01:10:36.441Z,28.40
2023-01-30T01:11:36.819Z,27.00
2023-01-30T01:12:36.996Z,27.20
2023-01-30T01:13:37.343Z,26.40
2023-01-30T01:14:37.674Z,27.40
2023-01-30T01:15:37.969Z,27.00
2023-01-30T01:16:38.194Z,26.20
2023-01-30T01:17:38.534Z,26.50
2023-01-30T01:18:38.751Z,29.50
2023-01-30T01:19:39.176Z,28.70
2023-01-30T01:20:39.379Z,29.00
2023-01-30T01:21:39.692Z,26.50
2023-01-30T01:22:40.016Z,27.30
2023-01-30T01:23:40.348Z,28.80
2023-01-30T01:24:40.699Z,26.70
2023-01-30T01:25:41.026Z,27.20
2023-01-30T01:26:41.284Z,27.70
2023-01-30T01:27:41.473Z,27.40
2023-01-30T01:28:41.760Z,27.50
2023-01-30T01:29:42.173Z,27.40
2023-01-30T01:30:42.417Z,27.10
2023-01-30T01:31:42.880Z,25.60
2023-01-30T01:32:42.944Z,27.40
2023-01-30T01:33:43.354Z,27.30
2023-01-30T01:34:43.531Z,28.40
2023-01-30T01:35:43.859Z,28.60
2023-01-30T01:36:59.694Z,25.80
2023-01-30T01:37:45.429Z,31.00
2023-01-30T01:38:44.655Z,27.80
2023-01-30T01:39:45.028Z,29.30
2023-01-30T01:40:45.190Z,28.80
2023-01-30T01:41:45.582Z,28.50
2023-01-30T01:42:45.940Z,28.10
2023-01-30T01:43:46.197Z,28.70
2023-01-30T01:44:46.398Z,29.60
2023-01-30T01:45:46.736Z,28.60
2023-01-30T01:46:47.025Z,26.80
2023-01-30T01:47:47.339Z,27.30
2023-01-30T01:48:47.769Z,27.90
2023-01-30T01:49:48.014Z,26.80
2023-01-30T01:50:48.381Z,27.20
2023-01-30T01:51:48.604Z,28.40
2023-01-30T01:52:50.746Z,28.90
2023-01-30T01:53:49.164Z,27.60
2023-01-30T01:54:49.454Z,27.10
2023-01-30T01:55:49.847Z,27.40
2023-01-30T01:56:50.045Z,29.20
2023-01-30T01:57:50.379Z,27.10
2023-01-30T01:58:50.696Z,27.10
2023-01-30T01:59:51.017Z,26.50
2023-01-30T02:00:51.348Z,30.40
2023-01-30T02:01:51.676Z,29.70
2023-01-30T02:02:52.000Z,31.20
2023-01-30T02:03:52.327Z,28.60
2023-01-30T02:04:52.631Z,28.90
2023-01-30T02:05:52.877Z,31.70
2023-01-30T02:06:53.070Z,28.90
2023-01-30T02:07:53.423Z,32.50
2023-01-30T02:08:53.710Z,29.90
2023-01-30T02:09:54.101Z,29.70
2023-01-30T02:10:54.329Z,31.10
2023-01-30T02:11:54.647Z,31.10
2023-01-30T02:12:54.895Z,30.10
2023-01-30T02:13:55.117Z,29.90
2023-01-30T02:14:55.307Z,28.80
2023-01-30T02:15:55.645Z,29.50
2023-01-30T02:16:55.988Z,30.30
2023-01-30T02:17:56.303Z,30.10
2023-01-30T02:18:56.641Z,28.80
2023-01-30T02:19:56.951Z,29.70
2023-01-30T02:20:57.269Z,31.00
2023-01-30T02:21:57.602Z,28.40
2023-01-30T02:22:57.914Z,26.90
2023-01-30T02:23:59.166Z,29.90
2023-01-30T02:24:58.479Z,31.60
2023-01-30T02:25:58.950Z,30.40
2023-01-30T02:26:59.125Z,30.40
2023-01-30T02:27:59.494Z,29.10
2023-01-30T02:28:59.887Z,28.70
2023-01-30T02:30:00.108Z,28.90
2023-01-30T02:31:00.460Z,30.20
2023-01-30T02:32:00.554Z,29.10
2023-01-30T02:33:00.861Z,30.10
2023-01-30T02:34:01.237Z,29.60
2023-01-30T02:35:01.402Z,32.50
2023-01-30T02:36:01.783Z,31.80
2023-01-30T02:37:02.111Z,30.80
2023-01-30T02:38:02.305Z,32.30
2023-01-30T02:39:02.615Z,30.40
2023-01-30T02:40:02.956Z,34.20
2023-01-30T02:41:03.276Z,30.40
2023-01-30T02:42:03.607Z,31.40
2023-01-30T02:43:03.905Z,31.00
2023-01-30T02:44:04.232Z,30.30
2023-01-30T02:45:04.572Z,31.10
2023-01-30T02:46:04.947Z,30.20
2023-01-30T02:47:05.142Z,32.50
2023-01-30T02:48:05.474Z,32.10
2023-01-30T02:49:05.799Z,30.80
2023-01-30T02:50:06.168Z,32.70
2023-01-30T02:51:06.379Z,29.80
2023-01-30T02:52:06.731Z,35.10
2023-01-30T02:53:06.994Z,33.70
2023-01-30T02:54:07.327Z,31.50
2023-01-30T02:55:07.623Z,31.30
2023-01-30T02:56:08.001Z,31.30
2023-01-30T02:57:08.340Z,36.00
2023-01-30T02:58:08.652Z,33.80
2023-01-30T02:59:09.038Z,31.40
2023-01-30T03:00:09.237Z,32.30
2023-01-30T03:01:09.552Z,32.00
2023-01-30T03:02:09.935Z,30.60
2023-01-30T03:03:10.126Z,31.80
2023-01-30T03:04:10.501Z,32.50
2023-01-30T03:05:10.713Z,32.30
2023-01-30T03:06:10.922Z,33.80
2023-01-30T03:07:11.254Z,34.30
2023-01-30T03:08:11.579Z,30.10
2023-01-30T03:09:11.744Z,30.80
2023-01-30T03:10:12.055Z,32.30
2023-01-30T03:11:12.346Z,30.60
2023-01-30T03:12:12.605Z,30.50
2023-01-30T03:13:12.844Z,32.50
2023-01-30T03:14:13.139Z,31.50
2023-01-30T03:15:13.438Z,34.00
2023-01-30T03:16:13.981Z,34.70
2023-01-30T03:17:14.000Z,32.20
2023-01-30T03:18:14.429Z,33.70
2023-01-30T03:19:14.595Z,34.80
2023-01-30T03:20:14.909Z,34.60
2023-01-30T03:21:15.272Z,34.50
2023-01-30T03:22:15.591Z,36.20
2023-01-30T03:23:15.787Z,35.50
2023-01-30T03:24:16.172Z,35.10
2023-01-30T03:25:16.652Z,36.00
2023-01-30T03:26:16.693Z,35.30
2023-01-30T03:27:16.893Z,37.90
2023-01-30T03:28:17.227Z,37.00
2023-01-30T03:29:17.587Z,35.30
2023-01-30T03:30:17.920Z,37.80
2023-01-30T03:31:18.403Z,39.40
2023-01-30T03:32:18.527Z,37.00
2023-01-30T03:33:18.855Z,35.60
2023-01-30T03:34:19.190Z,35.50
2023-01-30T03:35:19.841Z,37.60
2023-01-30T03:36:19.823Z,38.00
2023-01-30T03:37:20.048Z,36.40
2023-01-30T03:38:20.792Z,36.50
2023-01-30T03:39:20.673Z,36.10
2023-01-30T03:40:20.978Z,35.10
2023-01-30T03:41:21.348Z,34.50
2023-01-30T03:42:21.622Z,34.80
2023-01-30T03:43:21.952Z,33.60
2023-01-30T03:44:22.350Z,34.60
2023-01-30T03:45:22.503Z,34.50
2023-01-30T03:46:22.914Z,34.30
2023-01-30T03:47:24.105Z,35.10
2023-01-30T03:48:23.446Z,35.20
2023-01-30T03:49:23.747Z,34.40
2023-01-30T03:50:24.119Z,35.60
2023-01-30T03:51:24.459Z,35.80
2023-01-30T03:52:24.719Z,36.10
2023-01-30T03:53:24.885Z,34.50
2023-01-30T03:54:25.175Z,35.40
2023-01-30T03:55:25.419Z,32.60
2023-01-30T03:56:25.808Z,33.00
2023-01-30T03:57:26.044Z,33.40
2023-01-30T03:58:26.337Z,34.00
2023-01-30T03:59:26.719Z,33.80
2023-01-30T04:00:27.083Z,32.90
2023-01-30T04:01:27.322Z,34.00
2023-01-30T04:02:27.688Z,35.70
2023-01-30T04:03:27.924Z,39.00
2023-01-30T04:04:28.165Z,32.60
2023-01-30T04:05:28.714Z,33.60
2023-01-30T04:06:28.748Z,34.60
2023-01-30T04:07:29.052Z,35.80
2023-01-30T04:08:29.506Z,34.70
2023-01-30T04:09:29.635Z,33.00
2023-01-30T04:10:30.090Z,37.60
2023-01-30T04:11:30.254Z,33.50
2023-01-30T04:12:30.630Z,33.20
2023-01-30T04:13:30.811Z,33.00
2023-01-30T04:14:31.164Z,32.50
2023-01-30T04:15:31.462Z,35.50
2023-01-30T04:16:31.897Z,33.70
2023-01-30T04:17:32.081Z,34.90
2023-01-30T04:18:32.454Z,35.30
2023-01-30T04:19:32.642Z,32.10
2023-01-30T04:20:33.029Z,35.10
2023-01-30T04:21:33.335Z,35.60
2023-01-30T04:22:33.574Z,32.60
2023-01-30T04:23:33.931Z,35.80
2023-01-30T04:24:34.271Z,34.50
2023-01-30T04:25:34.518Z,35.00
2023-01-30T04:26:34.866Z,34.00
2023-01-30T04:27:35.156Z,33.20
2023-01-30T04:28:35.525Z,32.80
2023-01-30T04:29:35.842Z,34.30
2023-01-30T04:30:36.228Z,35.20
2023-01-30T04:31:36.509Z,35.00
2023-01-30T04:32:36.666Z,33.80
2023-01-30T04:33:37.022Z,33.70
2023-01-30T04:34:37.261Z,33.10
2023-01-30T04:35:37.648Z,35.40
2023-01-30T04:36:37.852Z,33.70
2023-01-30T04:37:38.124Z,38.20
2023-01-30T04:38:38.386Z,36.40
2023-01-30T04:39:38.652Z,36.30
2023-01-30T04:40:39.065Z,33.60
2023-01-30T04:41:39.284Z,34.30
2023-01-30T04:42:39.626Z,34.30
2023-01-30T04:43:39.941Z,34.00
2023-01-30T04:44:40.297Z,34.00
2023-01-30T04:45:40.604Z,32.00
2023-01-30T04:46:40.976Z,33.50
2023-01-30T04:47:41.197Z,34.00
2023-01-30T04:48:41.591Z,32.50
2023-01-30T04:49:41.787Z,35.20
2023-01-30T04:50:42.167Z,34.90
2023-01-30T04:51:42.490Z,33.10
2023-01-30T04:52:42.678Z,33.20
2023-01-30T04:53:42.945Z,32.10
2023-01-30T04:54:43.274Z,33.50
2023-01-30T04:55:43.596Z,30.60
2023-01-30T04:56:43.937Z,32.40
2023-01-30T04:57:44.244Z,33.10
2023-01-30T04:58:44.575Z,37.60
2023-01-30T04:59:44.888Z,32.60
2023-01-30T05:00:45.213Z,31.10
2023-01-30T05:01:45.444Z,35.20
2023-01-30T05:02:45.783Z,33.90
2023-01-30T05:03:46.117Z,33.10
2023-01-30T05:04:46.434Z,31.70
2023-01-30T05:05:46.830Z,33.20
2023-01-30T05:06:47.013Z,31.30
2023-01-30T05:07:47.291Z,31.40
2023-01-30T05:08:47.508Z,31.60
2023-01-30T05:09:47.825Z,31.90
2023-01-30T05:10:48.054Z,31.70
2023-01-30T05:11:48.391Z,30.90
2023-01-30T05:12:48.684Z,31.20
2023-01-30T05:13:49.009Z,32.50
2023-01-30T05:14:49.318Z,32.50
2023-01-30T05:15:49.623Z,30.90
2023-01-30T05:16:50.085Z,32.00
2023-01-30T05:17:50.248Z,32.40
2023-01-30T05:18:50.576Z,31.20
2023-01-30T05:19:50.815Z,31.00
2023-01-30T05:20:51.167Z,30.20
2023-01-30T05:21:51.465Z,31.50
2023-01-30T05:22:51.834Z,31.10
2023-01-30T05:23:52.016Z,32.30
2023-01-30T05:24:52.404Z,30.10
2023-01-30T05:25:52.622Z,33.00
2023-01-30T05:26:52.958Z,29.90
2023-01-30T05:27:53.275Z,29.60
2023-01-30T05:28:53.636Z,29.30
2023-01-30T05:29:53.955Z,29.30
2023-01-30T05:30:54.418Z,31.30
2023-01-30T05:31:54.593Z,30.20
2023-01-30T05:32:54.951Z,30.40
2023-01-30T05:33:55.235Z,33.10
2023-01-30T05:34:55.615Z,31.20
2023-01-30T05:35:55.904Z,30.90
2023-01-30T05:36:56.278Z,32.60
2023-01-30T05:37:56.592Z,32.50
2023-01-30T05:38:56.871Z,29.90
2023-01-30T05:39:57.178Z,30.60
2023-01-30T05:40:57.488Z,29.40
2023-01-30T05:41:57.841Z,31.20
2023-01-30T05:42:58.164Z,29.50
2023-01-30T05:43:58.472Z,31.10
2023-01-30T05:44:58.839Z,32.30
2023-01-30T05:45:59.083Z,32.80
2023-01-30T05:46:59.448Z,33.00
2023-01-30T05:48:01.608Z,31.40
2023-01-30T05:49:00.037Z,33.30
2023-01-30T05:50:00.294Z,33.90
2023-01-30T05:51:00.631Z,32.10
2023-01-30T05:52:01.014Z,31.60
2023-01-30T05:53:01.157Z,31.20
2023-01-30T05:54:01.470Z,33.30
2023-01-30T05:55:01.821Z,33.30
2023-01-30T05:56:02.081Z,34.30
2023-01-30T05:57:02.471Z,32.20
2023-01-30T05:58:02.620Z,29.70
2023-01-30T05:59:03.362Z,29.80
2023-01-30T06:00:03.262Z,27.80
2023-01-30T06:01:03.618Z,28.30
2023-01-30T06:02:03.932Z,30.30
2023-01-30T06:03:04.236Z,29.90
2023-01-30T06:04:04.703Z,29.80
2023-01-30T06:05:04.874Z,32.30
2023-01-30T06:06:04.995Z,31.30
2023-01-30T06:07:05.270Z,28.80
2023-01-30T06:08:05.639Z,28.00
2023-01-30T06:09:05.934Z,29.50
2023-01-30T06:10:06.216Z,25.90
2023-01-30T06:11:06.671Z,26.70
2023-01-30T06:12:06.849Z,26.00
2023-01-30T06:13:07.228Z,28.90
2023-01-30T06:14:07.499Z,26.10
2023-01-30T06:15:07.821Z,37.00
2023-01-30T06:16:08.609Z,26.20
2023-01-30T06:17:13.704Z,25.70
2023-01-30T06:18:08.629Z,25.00
2023-01-30T06:19:08.928Z,25.50
2023-01-30T06:20:09.108Z,25.90
2023-01-30T06:21:09.464Z,27.70
2023-01-30T06:22:09.806Z,26.90
2023-01-30T06:23:10.043Z,25.00
2023-01-30T06:24:10.670Z,27.30
2023-01-30T06:25:10.609Z,25.20
2023-01-30T06:26:11.066Z,25.00
2023-01-30T06:27:11.227Z,27.30
2023-01-30T06:28:11.456Z,25.60
2023-01-30T06:29:11.809Z,27.20
2023-01-30T06:30:12.111Z,29.70
2023-01-30T06:31:12.478Z,28.20
2023-01-30T06:32:12.819Z,26.00
2023-01-30T06:33:13.157Z,24.20
2023-01-30T06:34:13.437Z,26.70
2023-01-30T06:35:13.685Z,25.80
2023-01-30T06:36:13.868Z,29.00
2023-01-30T06:37:14.147Z,27.20
2023-01-30T06:38:14.493Z,23.40
2023-01-30T06:39:14.689Z,27.40
2023-01-30T06:40:14.902Z,21.60
2023-01-30T06:41:15.223Z,25.50
2023-01-30T06:42:15.435Z,27.10
2023-01-30T06:43:15.745Z,21.70
2023-01-30T06:44:16.059Z,21.90
2023-01-30T06:45:16.807Z,22.70
2023-01-30T06:46:16.714Z,24.70
2023-01-30T06:47:16.785Z,22.80
2023-01-30T06:48:17.020Z,22.10
2023-01-30T06:49:17.345Z,19.80
2023-01-30T06:50:17.599Z,20.60
2023-01-30T06:51:17.906Z,21.30
2023-01-30T06:52:18.231Z,21.60
2023-01-30T06:53:18.496Z,24.00
2023-01-30T06:54:18.712Z,20.40
2023-01-30T06:55:19.483Z,23.10
2023-01-30T06:56:19.773Z,22.90
2023-01-30T06:57:19.653Z,20.80
2023-01-30T06:58:19.937Z,21.60
2023-01-30T06:59:22.053Z,20.30
2023-01-30T07:00:20.431Z,20.70
2023-01-30T07:01:20.698Z,21.00
2023-01-30T07:02:21.011Z,20.60
2023-01-30T07:03:21.279Z,21.10
2023-01-30T07:04:21.589Z,21.30
2023-01-30T07:05:21.925Z,22.10
2023-01-30T07:06:22.173Z,20.40
2023-01-30T07:07:22.461Z,22.10
2023-01-30T07:08:24.320Z,21.40
2023-01-30T07:09:22.965Z,21.80
2023-01-30T07:10:23.202Z,20.40
2023-01-30T07:11:23.531Z,21.20
2023-01-30T07:12:23.774Z,22.40
2023-01-30T07:13:24.052Z,22.20
2023-01-30T07:14:24.319Z,22.30
2023-01-30T07:15:24.667Z,21.20
2023-01-30T07:16:24.960Z,22.10
2023-01-30T07:17:25.204Z,21.90
2023-01-30T07:18:25.470Z,22.90
2023-01-30T07:19:26.688Z,24.10
2023-01-30T07:20:25.988Z,20.90
2023-01-30T07:21:27.218Z,23.70
2023-01-30T07:22:26.486Z,23.00
2023-01-30T07:23:26.796Z,25.10
2023-01-30T07:24:27.989Z,25.50
2023-01-30T07:25:27.423Z,23.80
2023-01-30T07:26:27.745Z,24.50
2023-01-30T07:27:27.965Z,26.20
2023-01-30T07:28:28.248Z,24.40
2023-01-30T07:29:28.608Z,24.50
2023-01-30T07:30:29.023Z,23.50
2023-01-30T07:31:29.234Z,24.30
2023-01-30T07:32:29.454Z,23.80
2023-01-30T07:33:29.717Z,25.70
2023-01-30T07:34:29.967Z,23.80
2023-01-30T07:35:30.267Z,23.20
2023-01-30T07:36:30.467Z,25.30
2023-01-30T07:37:30.751Z,23.10
2023-01-30T07:38:31.076Z,21.60
2023-01-30T07:39:31.299Z,23.10
2023-01-30T07:40:31.626Z,23.10
2023-01-30T07:41:31.926Z,22.40
2023-01-30T07:42:32.171Z,22.80
2023-01-30T07:43:32.465Z,22.40
2023-01-30T07:44:32.696Z,22.30
2023-01-30T07:45:32.987Z,24.60
2023-01-30T07:46:33.326Z,23.20
2023-01-30T07:47:33.605Z,23.30
2023-01-30T07:48:33.931Z,21.20
2023-01-30T07:49:34.273Z,19.90
2023-01-30T07:50:34.491Z,21.10
2023-01-30T07:51:34.732Z,22.00
2023-01-30T07:52:35.000Z,21.70
2023-01-30T07:53:35.298Z,20.90
2023-01-30T07:54:35.522Z,21.40
2023-01-30T07:55:35.802Z,21.60
2023-01-30T07:56:36.081Z,20.20
2023-01-30T07:57:36.370Z,22.40
2023-01-30T07:58:36.707Z,19.90
2023-01-30T07:59:37.033Z,21.00
2023-01-30T08:00:39.144Z,21.00
2023-01-30T08:01:37.518Z,22.40
2023-01-30T08:02:37.827Z,22.10
2023-01-30T08:03:38.063Z,24.40
2023-01-30T08:04:38.445Z,23.50
2023-01-30T08:05:38.688Z,21.80
2023-01-30T08:06:39.071Z,22.50
2023-01-30T08:07:39.172Z,23.20
2023-01-30T08:08:39.503Z,23.50
2023-01-30T08:09:39.719Z,24.70
2023-01-30T08:10:40.025Z,22.80
2023-01-30T08:11:40.277Z,23.50
2023-01-30T08:12:40.564Z,22.80
2023-01-30T08:13:40.818Z,25.20
2023-01-30T08:14:41.150Z,25.00
2023-01-30T08:15:41.395Z,22.90
2023-01-30T08:16:41.734Z,23.00
2023-01-30T08:17:42.004Z,22.30
2023-01-30T08:18:42.271Z,23.60
2023-01-30T08:19:42.529Z,23.40
2023-01-30T08:20:42.830Z,23.40
2023-01-30T08:21:43.113Z,23.10
2023-01-30T08:22:43.396Z,22.70
2023-01-30T08:23:43.664Z,22.00
2023-01-30T08:24:43.960Z,23.30
2023-01-30T08:25:44.319Z,25.20
2023-01-30T08:26:44.642Z,23.10
2023-01-30T08:27:44.878Z,24.70
2023-01-30T08:28:45.602Z,23.20
2023-01-30T08:29:45.560Z,22.70
2023-01-30T08:30:45.739Z,27.40
2023-01-30T08:31:46.168Z,23.70
2023-01-30T08:32:46.294Z,23.80
2023-01-30T08:33:46.593Z,23.50
2023-01-30T08:34:46.924Z,22.70
2023-01-30T08:35:47.182Z,23.40
2023-01-30T08:36:47.433Z,23.10
2023-01-30T08:37:47.720Z,24.20
2023-01-30T08:38:48.136Z,22.60
2023-01-30T08:39:48.351Z,21.80
2023-01-30T08:40:48.652Z,22.90
2023-01-30T08:41:48.975Z,21.90
2023-01-30T08:42:49.274Z,23.30
2023-01-30T08:43:49.564Z,24.60
2023-01-30T08:44:49.836Z,22.40
2023-01-30T08:45:50.201Z,22.90
2023-01-30T08:46:50.328Z,24.60
2023-01-30T08:47:50.650Z,21.90
2023-01-30T08:48:50.913Z,23.00
2023-01-30T08:49:51.235Z,23.60
2023-01-30T08:50:51.563Z,23.00
2023-01-30T08:51:51.789Z,33.40
2023-01-30T08:52:52.088Z,23.00
2023-01-30T08:53:52.322Z,23.60
2023-01-30T08:54:52.597Z,22.00
2023-01-30T08:55:52.885Z,25.70
2023-01-30T08:56:53.147Z,22.80
2023-01-30T08:57:53.685Z,23.90
2023-01-30T08:58:53.765Z,24.60
2023-01-30T08:59:54.094Z,20.30
2023-01-30T09:00:54.374Z,22.40
2023-01-30T09:01:54.847Z,22.10
2023-01-30T09:02:55.804Z,21.10
2023-01-30T09:03:55.385Z,20.10
2023-01-30T09:04:55.551Z,20.80
2023-01-30T09:05:56.162Z,19.00
2023-01-30T09:06:56.028Z,17.50
2023-01-30T09:07:56.345Z,18.70
2023-01-30T09:09:04.770Z,18.10
2023-01-30T09:09:56.969Z,19.00
2023-01-30T09:10:57.214Z,18.30
2023-01-30T09:11:57.490Z,18.60
2023-01-30T09:12:57.794Z,18.90
2023-01-30T09:13:58.088Z,18.10
2023-01-30T09:14:58.373Z,18.10
2023-01-30T09:15:58.625Z,22.20
2023-01-30T09:16:58.973Z,17.40
2023-01-30T09:17:59.280Z,19.30
2023-01-30T09:18:59.528Z,22.30
2023-01-30T09:19:59.873Z,19.00
2023-01-30T09:21:00.114Z,18.10
2023-01-30T09:22:00.464Z,16.50
2023-01-30T09:23:00.639Z,22.00
2023-01-30T09:24:00.970Z,16.40
2023-01-30T09:25:01.172Z,16.30
2023-01-30T09:26:01.473Z,21.10
2023-01-30T09:27:01.688Z,18.50
2023-01-30T09:28:02.002Z,19.60
2023-01-30T09:29:02.238Z,17.60
2023-01-30T09:30:02.597Z,21.70
2023-01-30T09:31:02.984Z,21.30
2023-01-30T09:32:03.203Z,20.20
2023-01-30T09:33:03.520Z,16.80
2023-01-30T09:34:03.760Z,17.70
2023-01-30T09:35:03.954Z,18.20
2023-01-30T09:36:04.274Z,18.80
2023-01-30T09:37:05.211Z,16.80
2023-01-30T09:38:04.942Z,18.20
2023-01-30T09:39:05.169Z,14.70
2023-01-30T09:40:05.442Z,17.70
2023-01-30T09:41:05.671Z,16.70
2023-01-30T09:42:06.012Z,15.90
2023-01-30T09:43:06.642Z,17.00
2023-01-30T09:44:06.556Z,18.90
2023-01-30T09:45:06.760Z,23.90
2023-01-30T09:46:07.066Z,47.50
2023-01-30T09:47:07.350Z,14.70
2023-01-30T09:48:07.699Z,32.40
2023-01-30T09:49:07.910Z,36.80
2023-01-30T09:50:08.223Z,20.40
2023-01-30T09:51:08.477Z,44.10
2023-01-30T09:52:08.767Z,20.40
2023-01-30T09:53:08.990Z,52.70
2023-01-30T09:54:09.327Z,25.60
2023-01-30T09:55:09.566Z,26.10
2023-01-30T09:56:09.882Z,16.50
2023-01-30T09:57:21.904Z,16.10
2023-01-30T09:58:11.375Z,14.60
2023-01-30T09:59:10.656Z,13.80
2023-01-30T10:00:11.009Z,13.80
2023-01-30T10:01:11.274Z,18.70
2023-01-30T10:02:11.593Z,17.20
2023-01-30T10:03:11.905Z,16.30
2023-01-30T10:04:12.194Z,13.30
2023-01-30T10:05:12.493Z,15.10
2023-01-30T10:06:12.656Z,12.90
2023-01-30T10:07:12.910Z,13.90
2023-01-30T10:08:13.175Z,23.50
2023-01-30T10:09:13.897Z,15.50
2023-01-30T10:10:13.739Z,15.00
2023-01-30T10:11:14.010Z,13.80
2023-01-30T10:12:14.293Z,16.10
2023-01-30T10:13:14.545Z,17.10
2023-01-30T10:14:14.886Z,18.10
2023-01-30T10:15:15.175Z,16.20
2023-01-30T10:16:15.637Z,16.40
2023-01-30T10:17:15.760Z,14.40
2023-01-30T10:18:16.197Z,13.20
2023-01-30T10:19:26.125Z,14.30
2023-01-30T10:20:17.589Z,14.00
2023-01-30T10:21:16.790Z,12.10
2023-01-30T10:22:17.053Z,13.30
2023-01-30T10:23:17.332Z,13.70
2023-01-30T10:24:17.607Z,12.50
2023-01-30T10:25:17.983Z,16.50
2023-01-30T10:26:18.143Z,17.00
2023-01-30T10:27:18.415Z,14.20
2023-01-30T10:28:18.703Z,14.00
2023-01-30T10:29:18.971Z,18.10
2023-01-30T10:30:19.577Z,15.50
2023-01-30T10:31:19.561Z,18.00
2023-01-30T10:32:19.828Z,22.50
2023-01-30T10:33:20.095Z,18.80
2023-01-30T10:34:20.401Z,22.80
2023-01-30T10:35:20.632Z,17.80
2023-01-30T10:36:20.974Z,17.20
2023-01-30T10:37:21.287Z,18.60
2023-01-30T10:38:21.526Z,18.10
2023-01-30T10:39:21.781Z,16.60
2023-01-30T10:40:22.149Z,18.20
2023-01-30T10:41:22.376Z,14.60
2023-01-30T10:42:22.597Z,18.10
2023-01-30T10:43:22.886Z,16.30
2023-01-30T10:44:23.155Z,13.90
2023-01-30T10:45:23.405Z,17.00
2023-01-30T10:46:23.762Z,14.90
2023-01-30T10:47:24.383Z,18.90
2023-01-30T10:48:31.354Z,13.70
2023-01-30T10:49:25.821Z,15.20
2023-01-30T10:50:24.902Z,14.00
2023-01-30T10:51:25.179Z,18.10
2023-01-30T10:52:25.489Z,22.00
2023-01-30T10:53:25.834Z,21.10
2023-01-30T10:54:26.127Z,17.70
2023-01-30T10:55:36.839Z,15.90
2023-01-30T10:56:27.662Z,17.80
2023-01-30T10:57:26.918Z,13.90
2023-01-30T10:58:27.199Z,14.90
2023-01-30T10:59:27.426Z,20.10
2023-01-30T11:00:27.713Z,19.00
2023-01-30T11:01:28.134Z,19.70
2023-01-30T11:02:28.433Z,16.10
2023-01-30T11:03:28.570Z,16.60
2023-01-30T11:04:28.897Z,17.30
2023-01-30T11:05:29.190Z,16.10
2023-01-30T11:06:29.463Z,17.20
2023-01-30T11:07:29.683Z,20.30
2023-01-30T11:08:29.924Z,17.30
2023-01-30T11:09:30.237Z,16.50
2023-01-30T11:10:30.467Z,16.60
2023-01-30T11:11:30.733Z,15.80
2023-01-30T11:12:31.018Z,16.90
2023-01-30T11:13:31.247Z,18.10
2023-01-30T11:14:31.607Z,15.50
2023-01-30T11:15:31.820Z,16.30
2023-01-30T11:16:32.200Z,16.40
2023-01-30T11:17:32.553Z,15.70
2023-01-30T11:19:17.759Z,15.10
2023-01-30T11:19:34.099Z,15.50
2023-01-30T11:20:33.471Z,15.30
2023-01-30T11:21:43.676Z,15.40
2023-01-30T11:22:35.439Z,18.80
2023-01-30T11:23:34.317Z,12.60
2023-01-30T11:24:34.572Z,15.20
2023-01-30T11:25:34.880Z,17.70
2023-01-30T11:26:46.880Z,15.80
2023-01-30T11:27:36.381Z,16.30
2023-01-30T11:28:35.716Z,19.10
2023-01-30T11:29:35.926Z,16.00
2023-01-30T11:30:36.216Z,19.70
2023-01-30T11:31:41.607Z,24.80
2023-01-30T11:32:37.779Z,18.50
2023-01-30T11:33:37.106Z,16.40
2023-01-30T11:34:37.397Z,17.70
2023-01-30T11:35:37.671Z,21.20
2023-01-30T11:36:38.000Z,17.80
2023-01-30T11:37:38.231Z,19.40
2023-01-30T11:38:38.536Z,19.00
2023-01-30T11:39:38.854Z,22.10
2023-01-30T11:40:39.142Z,26.30
2023-01-30T11:41:39.549Z,35.60
2023-01-30T11:42:40.884Z,21.90
2023-01-30T11:43:39.928Z,20.90
2023-01-30T11:44:40.223Z,23.00
2023-01-30T11:45:40.600Z,20.40
2023-01-30T11:46:41.056Z,28.00
2023-01-30T11:47:43.218Z,18.40
2023-01-30T11:49:11.063Z,35.20
2023-01-30T11:49:45.781Z,28.20
2023-01-30T11:50:44.669Z,33.60
2023-01-30T11:51:42.470Z,15.70
2023-01-30T11:52:42.803Z,18.10
2023-01-30T11:53:45.078Z,17.40
2023-01-30T11:54:43.362Z,20.50
2023-01-30T11:55:56.492Z,19.60
2023-01-30T11:56:44.837Z,14.40
2023-01-30T11:57:44.116Z,20.00
2023-01-30T11:58:44.405Z,16.70
2023-01-30T11:59:44.784Z,17.50
2023-01-30T12:00:45.129Z,15.80
2023-01-30T12:01:45.340Z,17.00
2023-01-30T12:02:45.793Z,16.10
2023-01-30T12:03:45.873Z,20.00
2023-01-30T12:04:46.202Z,19.40
2023-01-30T12:05:46.412Z,13.80
2023-01-30T12:06:46.739Z,19.90
2023-01-30T12:07:46.959Z,18.20
2023-01-30T12:08:47.231Z,16.40
2023-01-30T12:09:47.774Z,13.80
2023-01-30T12:10:47.736Z,14.10
2023-01-30T12:11:48.068Z,14.80
2023-01-30T12:12:48.310Z,17.00
2023-01-30T12:13:48.591Z,17.00
2023-01-30T12:14:48.855Z,20.90
2023-01-30T12:15:49.151Z,16.70
2023-01-30T12:16:49.392Z,15.10
2023-01-30T12:17:49.637Z,21.70
2023-01-30T12:18:49.959Z,13.60
2023-01-30T12:19:50.377Z,12.90
2023-01-30T12:20:50.500Z,11.00
2023-01-30T12:21:50.809Z,14.40
2023-01-30T12:22:51.043Z,15.30
2023-01-30T12:23:51.365Z,16.30
2023-01-30T12:24:51.679Z,12.20
2023-01-30T12:25:51.883Z,13.90
2023-01-30T12:26:52.124Z,15.40
2023-01-30T12:27:52.371Z,14.40
2023-01-30T12:28:52.617Z,12.20
2023-01-30T12:29:52.894Z,10.80
2023-01-30T12:30:53.246Z,10.70
2023-01-30T12:31:54.163Z,15.20
2023-01-30T12:32:53.811Z,11.70
2023-01-30T12:33:54.117Z,14.90
2023-01-30T12:34:54.381Z,13.20
2023-01-30T12:35:54.732Z,14.70
2023-01-30T12:36:54.961Z,17.60
2023-01-30T12:37:55.257Z,17.30
2023-01-30T12:38:55.527Z,17.70
2023-01-30T12:39:55.816Z,17.80
2023-01-30T12:40:56.182Z,14.60
2023-01-30T12:41:56.388Z,13.60
2023-01-30T12:42:56.640Z,16.80
2023-01-30T12:43:56.927Z,11.20
2023-01-30T12:44:57.241Z,14.40
2023-01-30T12:45:57.529Z,9.70
2023-01-30T12:46:57.897Z,9.90
2023-01-30T12:47:57.995Z,13.40
2023-01-30T12:49:13.220Z,11.20
2023-01-30T12:49:59.602Z,11.90
2023-01-30T12:50:58.893Z,13.60
2023-01-30T12:51:59.127Z,15.60
2023-01-30T12:52:59.401Z,15.20
2023-01-30T12:53:59.664Z,13.40
2023-01-30T12:54:59.922Z,16.90
2023-01-30T12:56:00.222Z,18.90